Terminal Aerodrome Forecast
Issued by NWS Cleveland, OH

Home | Current Version | Previous Version | Text Only | Print | Product List | Glossary On
Versions: 1 2 3 4 5 6 7 8 9 10 11 12 13 14 15 16
344
FTUS41 KCLE 190536
TAFYNG
TAF
KYNG 190536Z 1906/2006 23005KT 5SM -DZ BR OVC004
     FM191500 21005KT P6SM OVC007
     FM191800 21005KT P6SM OVC010
     FM192000 12003KT P6SM OVC250=

USA.gov is the U.S. government's official web portal to all federal, state and local government web resources and services.